Time;durP1;ratioP1;P1;durP2;ratioP2;P2;SDS_P1;SDS_P2;PMS_P1;PMS_P2;Temp;Humidity;BMP_temperature;BMP_pressure;BME280_temperature;BME280_humidity;BME280_pressure;Samples;Min_cycle;Max_cycle;Signal;HPM_P1;HPM_P2
2023/02/20 00:01:54;;;;;;;;;;;;;;;25.64;37.64;95340.38;4954911;28;7659;-55
2023/02/20 00:04:27;;;;;;;;;;;;;;;25.64;37.19;95340.38;4970413;28;8993;-56
2023/02/20 00:07:26;;;;;;;;;;;;;;;25.64;36.70;95336.88;4964831;28;7349;-55
2023/02/20 00:10:23;;;;;;;;;;;;;;;25.64;37.74;95340.38;4915001;29;7013;-55
2023/02/20 00:12:51;;;;;;;;;;;;;;;25.64;37.17;95342.38;4875407;29;9978;-56
2023/02/20 00:15:49;;;;;;;;;;;;;;;25.65;37.48;95344.63;4874286;29;7202;-56
2023/02/20 00:18:25;;;;;;;;;;;;;;;25.62;37.89;95340.09;4880190;29;7301;-56
2023/02/20 00:20:51;;;;;;;;;;;;;;;25.61;36.77;95338.59;4879797;29;9054;-56
2023/02/20 00:23:36;;;;;;;;;;;;;;;25.62;37.63;95342.09;4878378;29;7460;-56
2023/02/20 00:26:13;;;;;;;;;;;;;;;25.60;37.14;95347.34;4888082;29;7350;-56
2023/02/20 00:29:00;;;;;;;;;;;;;;;25.63;36.87;95352.63;4867984;29;8979;-56
2023/02/20 00:31:50;;;;;;;;;;;;;;;25.63;37.59;95352.63;4880999;29;9314;-56
2023/02/20 00:34:45;;;;;;;;;;;;;;;25.62;37.58;95351.09;4895257;29;7323;-56
2023/02/20 00:37:40;;;;;;;;;;;;;;;25.64;37.46;95356.91;4840096;29;9328;-56
2023/02/20 00:40:19;;;;;;;;;;;;;;;25.63;37.63;95349.88;4786453;29;7421;-56
2023/02/20 00:43:12;;;;;;;;;;;;;;;25.64;37.67;95356.91;4785492;30;7279;-56
2023/02/20 00:45:52;;;;;;;;;;;;;;;25.65;37.10;95352.91;4780956;29;9290;-56
2023/02/20 00:48:20;;;;;;;;;;;;;;;25.62;37.57;95359.38;4801317;29;9017;-56
2023/02/20 00:50:48;;;;;;;;;;;;;;;25.64;37.21;95353.38;4835441;29;8231;-56
2023/02/20 00:53:14;;;;;;;;;;;;;;;25.63;37.49;95360.91;4826389;29;7992;-56
2023/02/20 00:55:40;;;;;;;;;;;;;;;25.63;37.14;95363.66;4842942;29;9626;-56
2023/02/20 00:58:08;;;;;;;;;;;;;;;25.65;37.62;95363.16;4841004;29;7469;-56
2023/02/20 01:00:34;;;;;;;;;;;;;;;25.65;37.13;95363.91;4840874;29;9027;-56
2023/02/20 01:03:00;;;;;;;;;;;;;;;25.62;37.19;95364.88;4843386;29;7010;-56
2023/02/20 01:05:28;;;;;;;;;;;;;;;25.63;37.42;95369.16;4841620;29;7187;-56
2023/02/20 01:08:21;;;;;;;;;;;;;;;25.65;36.87;95365.91;4844393;29;9055;-56
2023/02/20 01:10:50;;;;;;;;;;;;;;;25.65;36.90;95366.66;4843003;29;8943;-56
2023/02/20 01:13:33;;;;;;;;;;;;;;;25.66;36.71;95370.19;4848324;29;7303;-56
2023/02/20 01:16:07;;;;;;;;;;;;;;;25.63;37.38;95380.19;4901601;28;7114;-56
2023/02/20 01:18:52;;;;;;;;;;;;;;;25.62;37.27;95370.38;4973693;28;9172;-56
2023/02/20 01:21:32;;;;;;;;;;;;;;;25.63;37.42;95363.66;4957124;28;7330;-56
2023/02/20 01:24:06;;;;;;;;;;;;;;;25.65;37.38;95361.16;4957713;28;9377;-56
2023/02/20 01:26:35;;;;;;;;;;;;;;;25.64;36.92;95359.66;4956811;28;7078;-56
2023/02/20 01:29:03;;;;;;;;;;;;;;;25.64;37.16;95367.94;4962418;28;7222;-56
2023/02/20 01:31:34;;;;;;;;;;;;;;;25.67;37.16;95363.41;4972911;28;7170;-56
2023/02/20 01:34:32;;;;;;;;;;;;;;;25.68;37.06;95373.22;4955723;28;7861;-56
2023/02/20 01:37:34;;;;;;;;;;;;;;;25.65;36.58;95377.69;4973561;28;6992;-56
2023/02/20 01:40:03;;;;;;;;;;;;;;;25.65;37.49;95374.16;4902347;29;7057;-56
2023/02/20 01:42:33;;;;;;;;;;;;;;;25.64;37.74;95369.91;4907152;29;7010;-56
2023/02/20 01:45:20;;;;;;;;;;;;;;;25.66;37.16;95375.69;4906185;29;9043;-56
2023/02/20 01:47:51;;;;;;;;;;;;;;;25.66;36.98;95373.72;4906712;29;7255;-56
2023/02/20 01:50:25;;;;;;;;;;;;;;;25.64;37.01;95370.69;4895504;29;7111;-55
2023/02/20 01:53:25;;;;;;;;;;;;;;;25.66;36.70;95357.16;4895746;29;8753;-56
2023/02/20 01:56:12;;;;;;;;;;;;;;;25.64;37.02;95359.66;4856124;29;8779;-56
2023/02/20 01:58:44;;;;;;;;;;;;;;;25.67;37.50;95360.66;4864310;29;9867;-56
2023/02/20 02:01:11;;;;;;;;;;;;;;;25.68;37.09;95364.94;4879588;29;6986;-56
2023/02/20 02:04:10;;;;;;;;;;;;;;;25.68;36.69;95365.69;4859063;29;8997;-56
2023/02/20 02:06:53;;;;;;;;;;;;;;;25.65;37.33;95352.13;4874372;29;9330;-56
2023/02/20 02:09:51;;;;;;;;;;;;;;;25.67;37.61;95357.91;4861483;29;9084;-56
2023/02/20 02:12:35;;;;;;;;;;;;;;;25.65;37.07;95354.88;4864291;29;7249;-56
2023/02/20 02:15:21;;;;;;;;;;;;;;;25.63;36.79;95357.38;4911247;29;7257;-56
2023/02/20 02:18:46;;;;;;;;;;;;;;;25.62;37.35;95362.13;4916913;29;7051;-55
2023/02/20 02:21:42;;;;;;;;;;;;;;;25.64;37.80;95361.66;4917325;29;7372;-56
2023/02/20 02:24:22;;;;;;;;;;;;;;;25.64;37.67;95356.91;4915676;29;7216;-56
2023/02/20 02:27:10;;;;;;;;;;;;;;;25.64;36.83;95354.16;4913802;29;8583;-56
2023/02/20 02:30:02;;;;;;;;;;;;;;;25.65;36.84;95350.13;4913860;29;7336;-56
2023/02/20 02:33:05;;;;;;;;;;;;;;;25.65;37.71;95350.13;4966327;28;8989;-56
2023/02/20 02:39:23;;;;;;;;;;;;;;;25.61;36.71;95344.09;4933603;29;9402;-56
2023/02/20 02:46:14;;;;;;;;;;;;;;;25.61;37.10;95346.84;4897841;29;8495;-56
2023/02/20 02:48:56;;;;;;;;;;;;;;;25.62;37.47;95344.84;4819135;29;7061;-56
2023/02/20 02:51:30;;;;;;;;;;;;;;;25.63;36.96;95335.34;4823971;29;7218;-56
2023/02/20 02:54:11;;;;;;;;;;;;;;;25.61;37.21;95333.06;4818522;29;8471;-56
2023/02/20 02:56:44;;;;;;;;;;;;;;;25.58;37.55;95322.28;4813849;29;7252;-56
2023/02/20 02:59:21;;;;;;;;;;;;;;;25.58;37.52;95325.03;4805313;29;7266;-56
2023/02/20 03:02:02;;;;;;;;;;;;;;;25.60;37.38;95317.78;4820944;29;7011;-56
2023/02/20 03:04:33;;;;;;;;;;;;;;;25.64;37.61;95323.84;4805749;29;9198;-56
2023/02/20 03:07:10;;;;;;;;;;;;;;;25.64;36.95;95325.84;4804856;29;7051;-56
2023/02/20 03:10:19;;;;;;;;;;;;;;;25.62;37.27;95317.31;4807633;29;8258;-56
2023/02/20 03:13:04;;;;;;;;;;;;;;;25.60;36.94;95317.78;4754707;30;7050;-56
2023/02/20 03:15:48;;;;;;;;;;;;;;;25.62;37.15;95331.81;4777543;30;7367;-56
2023/02/20 03:18:34;;;;;;;;;;;;;;;25.61;37.22;95332.31;4768903;30;9341;-56
2023/02/20 03:21:19;;;;;;;;;;;;;;;25.59;37.71;95327.31;4778557;29;7214;-56
2023/02/20 03:23:54;;;;;;;;;;;;;;;25.61;36.89;95318.53;4878117;29;7379;-56
2023/02/20 03:26:30;;;;;;;;;;;;;;;25.59;37.22;95319.03;4893811;29;9265;-56
2023/02/20 03:29:14;;;;;;;;;;;;;;;25.59;37.73;95316.28;4892676;29;7242;-56
2023/02/20 03:31:45;;;;;;;;;;;;;;;25.61;36.76;95324.81;4878440;29;9451;-56
2023/02/20 03:43:24;;;;;;;;;;;;;;;25.57;37.77;95318.00;4885876;29;7373;-56
2023/02/20 03:46:21;;;;;;;;;;;;;;;25.59;36.81;95308.03;4896520;28;9044;-56
2023/02/20 03:48:59;;;;;;;;;;;;;;;25.57;37.45;95305.00;4948678;28;7135;-56
2023/02/20 03:51:28;;;;;;;;;;;;;;;25.57;37.49;95307.00;4967088;28;6999;-56
2023/02/20 03:53:59;;;;;;;;;;;;;;;25.58;36.76;95311.28;4974937;28;7277;-56
2023/02/20 03:56:38;;;;;;;;;;;;;;;25.58;37.46;95309.25;4970842;28;7345;-56
2023/02/20 03:59:28;;;;;;;;;;;;;;;25.58;36.88;95312.00;4951389;28;9240;-56
2023/02/20 04:02:00;;;;;;;;;;;;;;;25.54;37.09;95305.97;4970109;28;7032;-56
2023/02/20 04:04:36;;;;;;;;;;;;;;;25.57;37.54;95304.25;4968504;28;9288;-56
2023/02/20 04:07:18;;;;;;;;;;;;;;;25.56;37.75;95310.97;4954349;28;7077;-56
2023/02/20 04:10:01;;;;;;;;;;;;;;;25.52;37.13;95300.19;4962489;28;7355;-55
2023/02/20 04:12:59;;;;;;;;;;;;;;;25.49;38.05;95292.88;4954694;28;7167;-56
2023/02/20 04:15:27;;;;;;;;;;;;;;;25.49;37.62;95294.91;4880099;29;9033;-56
2023/02/20 04:18:08;;;;;;;;;;;;;;;25.49;37.47;95292.88;4887905;29;7585;-56
2023/02/20 04:20:54;;;;;;;;;;;;;;;25.54;37.07;95283.94;4880041;29;9101;-56
2023/02/20 04:23:37;;;;;;;;;;;;;;;25.51;37.18;95279.41;4896199;29;7695;-56
2023/02/20 04:26:18;;;;;;;;;;;;;;;25.53;37.46;95287.94;4880820;29;8910;-55
2023/02/20 04:28:54;;;;;;;;;;;;;;;25.50;37.42;95291.66;4880510;29;8574;-56
2023/02/20 04:31:36;;;;;;;;;;;;;;;25.50;37.33;95279.88;4879486;29;8240;-56
2023/02/20 04:34:04;;;;;;;;;;;;;;;25.51;37.15;95279.41;4886925;29;8970;-56
2023/02/20 04:37:08;;;;;;;;;;;;;;;25.55;36.95;95285.44;4885733;29;7022;-55
2023/02/20 04:39:34;;;;;;;;;;;;;;;25.54;37.06;95278.41;4887311;29;9388;-56
2023/02/20 04:42:01;;;;;;;;;;;;;;;25.52;37.45;95263.63;4878383;29;7498;-56
2023/02/20 04:44:30;;;;;;;;;;;;;;;25.51;36.83;95264.88;4868552;29;8343;-56
2023/02/20 04:47:00;;;;;;;;;;;;;;;25.52;36.98;95264.38;4883076;29;9486;-63
2023/02/20 04:49:36;;;;;;;;;;;;;;;25.51;37.16;95262.13;4874674;29;7247;-63
2023/02/20 04:52:02;;;;;;;;;;;;;;;25.51;37.34;95276.66;4931552;28;7023;-63
2023/02/20 04:54:57;;;;;;;;;;;;;;;25.51;36.98;95273.91;4958011;28;9076;-63
2023/02/20 04:57:34;;;;;;;;;;;;;;;25.47;37.51;95284.38;4878232;29;8998;-63
2023/02/20 05:00:03;;;;;;;;;;;;;;;25.48;37.84;95274.88;4860317;29;9304;-63
2023/02/20 05:02:33;;;;;;;;;;;;;;;25.49;37.88;95268.09;4877467;29;8964;-64
2023/02/20 05:05:00;;;;;;;;;;;;;;;25.49;37.43;95273.63;4864033;29;9440;-64
2023/02/20 05:07:45;;;;;;;;;;;;;;;25.50;37.48;95261.38;4879980;29;7053;-65
2023/02/20 05:10:34;;;;;;;;;;;;;;;25.50;36.91;95257.84;4876706;29;9026;-64
2023/02/20 05:13:16;;;;;;;;;;;;;;;25.48;37.56;95263.09;4885989;29;7246;-64
2023/02/20 05:15:43;;;;;;;;;;;;;;;25.48;37.80;95263.09;4873303;29;9077;-64
2023/02/20 05:18:22;;;;;;;;;;;;;;;25.46;37.50;95260.84;4885858;29;9240;-64
2023/02/20 05:23:44;;;;;;;;;;;;;;;25.42;37.91;95263.78;4874335;29;7245;-64
2023/02/20 05:26:12;;;;;;;;;;;;;;;25.41;37.90;95254.00;4872237;29;6954;-64
2023/02/20 05:28:49;;;;;;;;;;;;;;;25.46;37.93;95260.84;4869227;29;9054;-64
2023/02/20 05:31:17;;;;;;;;;;;;;;;25.47;37.12;95265.09;4870192;29;7592;-64
2023/02/20 05:33:50;;;;;;;;;;;;;;;25.45;37.01;95258.56;4908664;28;7022;-64
2023/02/20 05:36:16;;;;;;;;;;;;;;;25.48;37.44;95255.59;4967417;28;8442;-64
2023/02/20 05:38:47;;;;;;;;;;;;;;;25.49;37.47;95254.31;4974375;28;6978;-64
2023/02/20 05:41:18;;;;;;;;;;;;;;;25.49;37.78;95256.34;4964553;28;7021;-65
2023/02/20 05:43:45;;;;;;;;;;;;;;;25.47;37.30;95256.09;4969269;28;7062;-65
2023/02/20 05:46:14;;;;;;;;;;;;;;;25.45;37.55;95259.31;4970147;28;9042;-65
2023/02/20 05:48:40;;;;;;;;;;;;;;;25.42;37.08;95250.03;4970179;28;7396;-65
2023/02/20 05:51:28;;;;;;;;;;;;;;;25.41;37.66;95247.75;4969819;28;9084;-65
2023/02/20 05:54:07;;;;;;;;;;;;;;;25.44;37.89;95255.06;4973818;28;7195;-64
2023/02/20 05:56:39;;;;;;;;;;;;;;;25.44;37.29;95249.56;4956993;28;7190;-64
2023/02/20 05:59:22;;;;;;;;;;;;;;;25.46;37.27;95255.31;4957837;28;9066;-64
2023/02/20 06:02:06;;;;;;;;;;;;;;;25.46;37.06;95246.31;4979582;28;7294;-64
2023/02/20 06:04:35;;;;;;;;;;;;;;;25.48;36.97;95246.56;4957091;28;9091;-64
2023/02/20 06:07:09;;;;;;;;;;;;;;;25.48;37.17;95244.56;4972532;28;7034;-65
2023/02/20 06:09:46;;;;;;;;;;;;;;;25.45;37.04;95239.28;4957212;28;7125;-64
2023/02/20 06:12:17;;;;;;;;;;;;;;;25.41;37.98;95243.00;4972890;28;9086;-65
2023/02/20 06:14:45;;;;;;;;;;;;;;;25.40;37.87;95235.97;4973087;28;9699;-64
2023/02/20 06:17:13;;;;;;;;;;;;;;;25.41;37.68;95242.22;4957612;28;8859;-64
2023/02/20 06:19:49;;;;;;;;;;;;;;;25.41;37.40;95247.75;4981438;28;7401;-65
2023/02/20 06:22:30;;;;;;;;;;;;;;;25.39;38.19;95239.22;4957704;28;7104;-64
2023/02/20 06:25:03;;;;;;;;;;;;;;;25.34;37.40;95237.91;4979097;28;7263;-64
2023/02/20 06:27:31;;;;;;;;;;;;;;;25.38;37.85;95237.72;4959918;28;6865;-64
2023/02/20 06:29:57;;;;;;;;;;;;;;;25.41;37.28;95239.47;4967663;28;8979;-64
2023/02/20 06:32:23;;;;;;;;;;;;;;;25.42;37.88;95243.78;4953334;28;9022;-64
2023/02/20 06:35:01;;;;;;;;;;;;;;;25.41;37.82;95242.22;4954802;28;7022;-64
2023/02/20 06:37:27;;;;;;;;;;;;;;;25.42;37.21;95254.81;4971380;28;8415;-64
2023/02/20 06:39:54;;;;;;;;;;;;;;;25.41;37.50;95247.75;4968963;28;7416;-64
2023/02/20 06:42:25;;;;;;;;;;;;;;;25.39;37.55;95250.22;4955701;28;7055;-64
2023/02/20 06:44:53;;;;;;;;;;;;;;;25.36;38.36;95234.66;4959728;28;7239;-65
2023/02/20 06:47:19;;;;;;;;;;;;;;;25.38;37.89;95257.00;4953587;28;8710;-64
2023/02/20 06:49:46;;;;;;;;;;;;;;;25.40;38.02;95260.00;4977794;28;7674;-64
2023/02/20 06:52:16;;;;;;;;;;;;;;;25.36;37.87;95257.47;4969513;28;9005;-64
2023/02/20 06:54:43;;;;;;;;;;;;;;;25.34;37.34;95245.41;4974288;28;9367;-64
2023/02/20 06:57:12;;;;;;;;;;;;;;;25.35;37.46;95255.97;4969839;28;9012;-64
2023/02/20 07:00:31;;;;;;;;;;;;;;;25.37;38.14;95263.72;4956777;28;7249;-64
2023/02/20 07:03:04;;;;;;;;;;;;;;;25.35;38.22;95260.72;4916803;29;7316;-64
2023/02/20 07:05:39;;;;;;;;;;;;;;;25.35;38.06;95252.44;4929521;29;7102;-64
2023/02/20 07:08:06;;;;;;;;;;;;;;;25.35;37.39;95250.47;4924042;29;7000;-64
2023/02/20 07:10:41;;;;;;;;;;;;;;;25.35;37.36;95252.44;4937784;28;8793;-64
2023/02/20 07:13:09;;;;;;;;;;;;;;;25.34;37.21;95253.69;4916067;29;8699;-65
2023/02/20 07:15:35;;;;;;;;;;;;;;;25.34;37.76;95254.44;4930891;29;7325;-64
2023/02/20 07:18:01;;;;;;;;;;;;;;;25.34;38.12;95250.94;4914015;28;8181;-65
2023/02/20 07:20:27;;;;;;;;;;;;;;;25.35;38.15;95253.22;4915700;29;7015;-64
2023/02/20 07:23:03;;;;;;;;;;;;;;;25.35;37.36;95250.47;4925683;29;9199;-64
2023/02/20 07:25:31;;;;;;;;;;;;;;;25.34;37.82;95237.16;4925401;29;7143;-64
2023/02/20 07:28:07;;;;;;;;;;;;;;;25.35;37.44;95252.44;4926135;29;8515;-64
2023/02/20 07:30:34;;;;;;;;;;;;;;;25.33;37.66;95241.16;4934103;29;9058;-65
2023/02/20 07:33:30;;;;;;;;;;;;;;;25.33;38.29;95247.44;4924223;29;7413;-64
2023/02/20 07:36:05;;;;;;;;;;;;;;;25.34;37.75;95235.16;4915253;29;9195;-64
2023/02/20 07:38:32;;;;;;;;;;;;;;;25.37;37.50;95230.69;4900744;29;9375;-64
2023/02/20 07:41:14;;;;;;;;;;;;;;;25.37;38.08;95236.97;4888109;29;7256;-64
2023/02/20 07:43:44;;;;;;;;;;;;;;;25.37;37.86;95241.69;4897109;29;9026;-64
2023/02/20 07:46:23;;;;;;;;;;;;;;;25.38;38.01;95235.69;4891632;29;9037;-64
2023/02/20 07:48:54;;;;;;;;;;;;;;;25.37;37.66;95236.19;4896624;29;7235;-64
2023/02/20 07:51:23;;;;;;;;;;;;;;;25.39;37.44;95228.97;4897356;29;7140;-64
2023/02/20 07:53:54;;;;;;;;;;;;;;;25.42;37.91;95224.50;4881480;29;9400;-64
2023/02/20 07:56:30;;;;;;;;;;;;;;;25.42;37.38;95222.47;4886999;29;8716;-64
2023/02/20 07:58:58;;;;;;;;;;;;;;;25.44;37.45;95222.00;4881154;29;7232;-64
2023/02/20 08:01:28;;;;;;;;;;;;;;;25.46;37.96;95222.28;4883409;29;8755;-64
2023/02/20 08:04:08;;;;;;;;;;;;;;;25.48;37.32;95228.03;4884334;29;9238;-64
2023/02/20 08:06:51;;;;;;;;;;;;;;;25.48;37.97;95228.03;4885013;29;7298;-63
2023/02/20 08:09:27;;;;;;;;;;;;;;;25.48;37.87;95230.81;4889280;29;9067;-64
2023/02/20 08:12:06;;;;;;;;;;;;;;;25.49;38.17;95229.53;4910208;28;7109;-64
2023/02/20 08:14:56;;;;;;;;;;;;;;;25.49;38.21;95226.78;4969198;28;8150;-64
2023/02/20 08:18:00;;;;;;;;;;;;;;;25.48;37.19;95225.28;4963596;28;8990;-64
2023/02/20 08:20:28;;;;;;;;;;;;;;;25.46;38.53;95214.00;4915089;29;7271;-65
2023/02/20 08:23:01;;;;;;;;;;;;;;;25.48;37.90;95222.53;4931594;29;9412;-64
2023/02/20 08:25:39;;;;;;;;;;;;;;;25.50;37.48;95222.03;4930639;29;9348;-64
2023/02/20 08:28:09;;;;;;;;;;;;;;;25.50;37.56;95217.28;4909968;29;9476;-64
2023/02/20 08:30:44;;;;;;;;;;;;;;;25.56;37.28;95220.06;4934294;29;7482;-65
2023/02/20 08:33:10;;;;;;;;;;;;;;;25.57;37.28;95222.34;4925379;29;9146;-65
2023/02/20 08:35:39;;;;;;;;;;;;;;;25.56;37.98;95209.06;4923427;28;9096;-64
2023/02/20 08:38:25;;;;;;;;;;;;;;;25.55;37.66;95213.84;4927839;29;9022;-65
2023/02/20 08:40:51;;;;;;;;;;;;;;;25.53;38.19;95219.06;4916722;29;7290;-64
2023/02/20 08:43:48;;;;;;;;;;;;;;;25.56;37.27;95212.56;4932843;29;9440;-65
2023/02/20 08:46:14;;;;;;;;;;;;;;;25.59;37.65;95203.34;4878205;29;7034;-65
2023/02/20 08:49:01;;;;;;;;;;;;;;;25.62;37.58;95210.59;4882809;29;7221;-64
2023/02/20 08:52:04;;;;;;;;;;;;;;;25.61;37.24;95213.84;4917699;29;6978;-65
2023/02/20 08:54:31;;;;;;;;;;;;;;;25.60;37.27;95210.34;4923105;29;8919;-65
2023/02/20 08:57:07;;;;;;;;;;;;;;;25.59;38.06;95203.34;4917836;29;7051;-65
2023/02/20 08:59:50;;;;;;;;;;;;;;;25.58;37.45;95206.59;4918019;29;9015;-65
2023/02/20 09:02:49;;;;;;;;;;;;;;;25.65;37.06;95214.38;4931730;29;7877;-65
2023/02/20 09:05:36;;;;;;;;;;;;;;;25.62;37.76;95199.56;4878428;29;8980;-64
2023/02/20 09:08:03;;;;;;;;;;;;;;;25.65;37.75;95212.38;4875496;29;8848;-65
2023/02/20 09:10:41;;;;;;;;;;;;;;;25.70;37.96;95213.66;4893573;29;8409;-65
2023/02/20 09:13:23;;;;;;;;;;;;;;;25.70;37.19;95203.41;4890511;29;8973;-65
2023/02/20 09:15:51;;;;;;;;;;;;;;;25.71;37.29;95215.91;4879032;29;9029;-65
2023/02/20 09:18:19;;;;;;;;;;;;;;;25.71;37.77;95210.41;4872672;29;9611;-65
2023/02/20 09:20:47;;;;;;;;;;;;;;;25.73;37.77;95216.19;4894040;29;7319;-65
2023/02/20 09:23:13;;;;;;;;;;;;;;;25.74;37.89;95208.69;4893568;29;7052;-65
2023/02/20 09:25:48;;;;;;;;;;;;;;;25.75;37.82;95212.97;4917164;29;7262;-65
2023/02/20 09:28:24;;;;;;;;;;;;;;;25.73;37.02;95213.44;4918353;29;7261;-65
2023/02/20 09:30:53;;;;;;;;;;;;;;;25.74;37.14;95214.94;4909069;29;9043;-64
2023/02/20 09:33:28;;;;;;;;;;;;;;;25.75;37.50;95210.94;4901710;29;7052;-65
2023/02/20 09:35:55;;;;;;;;;;;;;;;25.76;37.31;95222.72;4899013;29;8693;-65
2023/02/20 09:38:25;;;;;;;;;;;;;;;25.79;37.70;95216.22;4918311;29;9091;-65
2023/02/20 09:40:58;;;;;;;;;;;;;;;25.79;37.11;95222.50;4924421;28;9295;-65
2023/02/20 09:43:54;;;;;;;;;;;;;;;25.78;37.40;95223.72;4981072;28;7040;-65
2023/02/20 09:46:26;;;;;;;;;;;;;;;25.79;37.50;95216.22;4957528;28;8984;-65
2023/02/20 09:49:09;;;;;;;;;;;;;;;25.81;37.69;95216.50;4968163;28;9082;-66
2023/02/20 09:51:52;;;;;;;;;;;;;;;25.82;37.36;95212.47;4969594;28;7295;-65
2023/02/20 09:55:03;;;;;;;;;;;;;;;25.83;37.07;95208.47;4973396;28;9263;-65
2023/02/20 09:57:38;;;;;;;;;;;;;;;25.82;37.38;95204.19;4965350;28;8218;-65
2023/02/20 10:00:12;;;;;;;;;;;;;;;25.83;37.70;95202.97;4975167;28;7256;-65
2023/02/20 10:03:13;;;;;;;;;;;;;;;25.84;37.47;95204.47;4956646;28;7497;-65
2023/02/20 10:05:47;;;;;;;;;;;;;;;25.81;37.29;95202.72;4964459;28;7282;-65
2023/02/20 10:08:25;;;;;;;;;;;;;;;25.87;37.63;95203.50;4957768;28;7213;-65
2023/02/20 10:11:05;;;;;;;;;;;;;;;25.89;37.67;95204.50;4972632;28;8779;-66
2023/02/20 10:14:01;;;;;;;;;;;;;;;25.90;37.67;95202.50;4956643;28;7259;-65
2023/02/20 10:16:36;;;;;;;;;;;;;;;25.92;37.65;95200.78;4932772;29;6982;-65
2023/02/20 10:19:44;;;;;;;;;;;;;;;25.88;36.93;95203.00;4918288;29;9005;-65
2023/02/20 10:22:19;;;;;;;;;;;;;;;25.90;37.62;95206.00;4913371;29;7285;-65
2023/02/20 10:25:28;;;;;;;;;;;;;;;25.91;36.98;95202.00;4900711;29;9213;-66
2023/02/20 10:28:17;;;;;;;;;;;;;;;25.95;38.23;95201.78;4820807;29;7835;-65
2023/02/20 10:31:21;;;;;;;;;;;;;;;25.94;37.34;95206.56;4804509;29;7220;-66
2023/02/20 10:33:55;;;;;;;;;;;;;;;25.96;36.94;95203.28;4805462;29;7082;-66
2023/02/20 10:36:29;;;;;;;;;;;;;;;25.96;37.55;95204.06;4820770;29;7018;-66
2023/02/20 10:39:05;;;;;;;;;;;;;;;25.95;37.72;95191.50;4820346;29;7253;-66
2023/02/20 10:42:00;;;;;;;;;;;;;;;25.98;36.95;95193.28;4820023;29;7161;-65
2023/02/20 10:44:50;;;;;;;;;;;;;;;25.98;36.87;95198.78;4801086;29;7475;-65
2023/02/20 10:47:49;;;;;;;;;;;;;;;25.98;37.22;95190.53;4808978;29;9098;-65
2023/02/20 10:50:52;;;;;;;;;;;;;;;25.97;37.95;95200.03;4805539;29;9214;-66
2023/02/20 10:53:53;;;;;;;;;;;;;;;25.98;37.36;95198.03;5086635;28;6734;-66
2023/02/20 10:57:15;;;;;;;;;;;;;;;26.00;37.50;95198.28;5049351;28;7128;-66
2023/02/20 11:00:15;;;;;;;;;;;;;;;26.00;37.22;95198.28;4968582;28;9154;-65
2023/02/20 11:03:08;;;;;;;;;;;;;;;26.01;37.02;95186.75;4985847;28;8791;-65
2023/02/20 11:06:03;;;;;;;;;;;;;;;26.02;37.43;95184.78;4989317;28;7300;-65
2023/02/20 11:08:41;;;;;;;;;;;;;;;26.03;37.92;95178.75;4930694;29;9085;-65
2023/02/20 11:11:30;;;;;;;;;;;;;;;26.04;38.04;95176.75;4930623;29;9447;-65
2023/02/20 11:14:45;;;;;;;;;;;;;;;26.03;37.94;95167.72;4915028;29;7118;-65
2023/02/20 11:17:45;;;;;;;;;;;;;;;26.05;37.79;95168.00;4921170;29;7021;-65
2023/02/20 11:20:30;;;;;;;;;;;;;;;26.05;37.73;95168.00;4916122;29;6995;-65
2023/02/20 11:23:03;;;;;;;;;;;;;;;26.06;37.56;95155.72;4916788;29;8935;-65
2023/02/20 11:25:40;;;;;;;;;;;;;;;26.08;37.92;95156.00;4929332;29;9197;-65
2023/02/20 11:28:17;;;;;;;;;;;;;;;26.08;37.06;95150.50;4920367;29;7042;-65
2023/02/20 11:31:06;;;;;;;;;;;;;;;26.09;37.94;95140.97;4920793;29;7046;-65
2023/02/20 11:33:46;;;;;;;;;;;;;;;26.11;37.43;95138.47;4929011;29;7219;-65
2023/02/20 11:36:26;;;;;;;;;;;;;;;26.12;38.09;95142.00;4925320;29;7289;-65
2023/02/20 11:39:34;;;;;;;;;;;;;;;26.14;37.24;95139.50;4929437;29;7184;-65
2023/02/20 11:42:16;;;;;;;;;;;;;;;26.14;37.46;95125.72;4904251;29;8719;-65
2023/02/20 11:45:21;;;;;;;;;;;;;;;26.17;37.88;95122.69;4895940;29;7467;-65
2023/02/20 11:48:09;;;;;;;;;;;;;;;26.16;37.03;95107.41;4903952;29;7250;-65
2023/02/20 11:50:51;;;;;;;;;;;;;;;26.19;37.66;95110.44;4912283;29;9129;-65
2023/02/20 11:53:23;;;;;;;;;;;;;;;26.19;37.38;95097.38;4911003;29;9129;-65
2023/02/20 11:56:17;;;;;;;;;;;;;;;26.21;37.37;95096.91;4924243;28;7058;-65
2023/02/20 11:58:46;;;;;;;;;;;;;;;26.22;37.23;95085.38;4967509;28;8995;-65
2023/02/20 12:01:59;;;;;;;;;;;;;;;26.24;37.61;95079.34;4942762;28;9231;-65
2023/02/20 12:04:35;;;;;;;;;;;;;;;26.24;37.35;95068.31;4907439;29;8672;-65
2023/02/20 12:07:23;;;;;;;;;;;;;;;26.23;37.74;95062.03;4901712;29;7061;-64
2023/02/20 12:09:56;;;;;;;;;;;;;;;26.25;37.94;95062.31;4907282;29;8982;-65
2023/02/20 12:12:29;;;;;;;;;;;;;;;26.27;37.61;95050.78;4915440;29;7331;-65
2023/02/20 12:15:26;;;;;;;;;;;;;;;26.28;37.50;95046.75;4924947;29;9038;-65
2023/02/20 12:18:11;;;;;;;;;;;;;;;26.26;37.89;95052.78;4942597;28;9069;-65
2023/02/20 12:20:52;;;;;;;;;;;;;;;26.29;37.75;95062.81;5005715;28;7018;-65
2023/02/20 12:24:10;;;;;;;;;;;;;;;26.31;38.17;95074.09;4987389;28;7266;-65
2023/02/20 12:26:51;;;;;;;;;;;;;;;26.32;37.45;95064.56;4974565;28;9260;-65
2023/02/20 12:29:56;;;;;;;;;;;;;;;26.33;38.10;95048.78;4974201;28;7051;-65
2023/02/20 12:32:58;;;;;;;;;;;;;;;26.34;37.88;95048.28;4953327;28;7336;-65
2023/02/20 12:35:44;;;;;;;;;;;;;;;26.34;37.38;95034.47;4972965;28;7085;-65
2023/02/20 12:38:36;;;;;;;;;;;;;;;26.39;37.61;95047.53;4957438;28;7137;-65
2023/02/20 12:41:18;;;;;;;;;;;;;;;26.39;38.07;95041.25;4984822;28;7045;-65
2023/02/20 12:43:52;;;;;;;;;;;;;;;26.38;37.63;95028.72;4987630;28;7298;-65
2023/02/20 12:46:28;;;;;;;;;;;;;;;26.38;37.91;95025.97;4992858;28;7251;-65
2023/02/20 12:49:24;;;;;;;;;;;;;;;26.38;37.59;95017.69;4984561;28;9435;-65
2023/02/20 12:52:03;;;;;;;;;;;;;;;26.39;38.53;95002.63;4992206;28;7538;-64
2023/02/20 12:55:06;;;;;;;;;;;;;;;26.40;38.28;95010.44;4993680;28;7201;-65
2023/02/20 12:57:51;;;;;;;;;;;;;;;26.41;38.28;95008.41;4935544;29;9121;-65
2023/02/20 13:00:58;;;;;;;;;;;;;;;26.41;38.13;95006.41;4935197;28;7275;-65
2023/02/20 13:03:59;;;;;;;;;;;;;;;26.43;38.00;95001.13;4953600;28;7806;-65
2023/02/20 13:07:08;;;;;;;;;;;;;;;26.46;38.10;94988.34;4953840;28;9454;-65
2023/02/20 13:10:02;;;;;;;;;;;;;;;26.49;37.62;94990.13;4948715;28;9245;-65
2023/02/20 13:12:36;;;;;;;;;;;;;;;26.55;37.66;94983.34;4953091;28;9060;-65
2023/02/20 13:15:42;;;;;;;;;;;;;;;26.56;38.28;94981.31;4937710;28;7896;-65
2023/02/20 13:18:47;;;;;;;;;;;;;;;26.59;37.83;94988.59;4950695;28;7324;-65
2023/02/20 13:21:21;;;;;;;;;;;;;;;26.61;38.57;94980.56;4954094;28;9260;-65
2023/02/20 13:23:52;;;;;;;;;;;;;;;26.64;38.30;94974.78;4951857;28;9802;-65
2023/02/20 13:26:33;;;;;;;;;;;;;;;26.66;38.02;94986.09;4952875;28;7180;-65
2023/02/20 13:29:16;;;;;;;;;;;;;;;26.68;37.89;94980.06;4951735;28;9360;-65
2023/02/20 13:31:48;;;;;;;;;;;;;;;26.70;38.16;94972.03;4969294;28;9199;-65
2023/02/20 13:34:13;;;;;;;;;;;;;;;26.73;37.96;94968.31;4989180;28;9374;-65
2023/02/20 13:36:42;;;;;;;;;;;;;;;26.74;37.58;94962.28;4999632;28;7264;-65
2023/02/20 13:39:20;;;;;;;;;;;;;;;26.77;38.09;94955.00;5042396;28;7510;-65
2023/02/20 13:42:25;;;;;;;;;;;;;;;26.80;37.42;94948.44;5023650;28;7048;-65
2023/02/20 13:44:51;;;;;;;;;;;;;;;26.82;37.81;94948.69;5048972;28;7116;-65
2023/02/20 13:47:36;;;;;;;;;;;;;;;26.85;38.19;94939.41;5049085;28;7038;-65
2023/02/20 13:50:41;;;;;;;;;;;;;;;26.89;38.18;94926.09;5041384;28;9903;-65
2023/02/20 13:53:07;;;;;;;;;;;;;;;26.90;37.60;94928.34;4993563;28;9048;-65
2023/02/20 13:55:36;;;;;;;;;;;;;;;26.94;37.54;94921.81;5002875;28;9200;-65
2023/02/20 13:58:15;;;;;;;;;;;;;;;26.96;38.19;94924.81;4984761;28;9034;-65
2023/02/20 14:00:52;;;;;;;;;;;;;;;26.98;37.53;94920.28;4975108;28;9133;-65
2023/02/20 14:03:45;;;;;;;;;;;;;;;27.02;37.65;94925.53;4982044;28;7032;-65
2023/02/20 14:06:51;;;;;;;;;;;;;;;27.05;37.64;94925.28;4988907;28;7053;-65
2023/02/20 14:09:58;;;;;;;;;;;;;;;27.09;37.86;94928.53;4960343;28;7273;-65
2023/02/20 14:12:25;;;;;;;;;;;;;;;27.08;37.29;94913.22;4895876;29;7145;-65
2023/02/20 14:14:51;;;;;;;;;;;;;;;27.12;37.17;94907.44;4902791;29;9418;-65
2023/02/20 14:17:22;;;;;;;;;;;;;;;27.15;37.57;94904.41;4878374;29;7047;-65
2023/02/20 14:20:01;;;;;;;;;;;;;;;27.16;37.54;94905.16;4893168;29;7033;-65
2023/02/20 14:22:36;;;;;;;;;;;;;;;27.18;37.28;94899.88;4893717;29;9627;-65
2023/02/20 14:25:16;;;;;;;;;;;;;;;27.24;37.59;94903.38;4886598;29;7214;-65
2023/02/20 14:28:04;;;;;;;;;;;;;;;27.27;36.75;94908.63;4914745;29;7061;-65